PCLO2: Pine Creek Lake

Data processed at Fri Jan 05 2018 23:09


All information presented herein is the property of the government of the United States of America and may be revised or deleted at any time without prior notice.
Dissemination of this information without the expressed written consent of the Public Affairs Office, Tulsa District U.S. Army Corps of Engineers is strictly prohibited.
These data are gathered electronically and, as presented, have not undergone any form of quality control. These data are not guaranteed to be valid or correct.
Go to home page.
Go to station list.

Upstream stations:

Downstream station:
Previous Day
Next Day
Current Day
    
SHEF ID:       PCLO2     Pine Creek Lake
STATION TYPE:  RESERVOIR
Normal Pool:  Bottom =   414.00, Top =   433.00

               PRECIP  STAGE(2) ELEVATION   STORAGE   TW-ELEV    INFLOW   RELEASE  AIR-TEMP  WIND-DIRWIND-SPEED REL-HUMID SOLAR-RAD   VOLTAGE  BAT-LOAD
                   in        ft        ft     ac-ft        ft       cfs       cfs         F       deg       mph         %      W/m2      volt      volt
              Ccp-Rev   Ccp-Rev   Ccp-Rev   Ccp-Rev   Ccp-Rev  Regi-Rev  Regi-Rev   Ccp-Rev   Ccp-Rev   Ccp-Rev   Ccp-Rev   Ccp-Rev   Ccp-Rev   Ccp-Rev
(US/Central)
01/03 00:00      0.00    435.56    435.57     43413      3.93        35        75     23.16    280.20      3.40     46.45      0.00     13.48     13.16
01/03 01:00      0.00    435.46    435.57     43413      3.94        50        75     23.04    285.90      3.80     46.73      0.00     13.47     13.16
01/03 02:00      0.00    435.58    435.57     43413      3.93        62        75     21.34    285.10      3.20     49.52      0.00     13.47     13.16
01/03 03:00      0.00    435.59    435.58     43444      3.93        75        75     19.92    324.90      3.90     56.65      0.00     13.47     13.16
01/03 04:00      0.00    435.58    435.56     43381      3.93        75        75     18.93    303.40      2.40     60.06      0.00     13.47     12.93
01/03 05:00      0.00    435.58    435.57     43413      3.93        75        75     18.30    318.40      2.60     62.72      0.00     13.47     13.16
01/03 06:00      0.00    435.59    435.58     43444      3.93        75        75     17.83    303.80      3.50     64.78      0.00     13.47     13.15
01/03 07:00      0.00    435.59    435.58     43444      3.93       207        75     17.38    285.60      2.30     68.15      0.00     13.47     13.16
01/03 08:00      0.00    435.43    435.57     43413      3.93       192        75     15.98    241.30      2.40     79.11      2.10     13.47     13.15
01/03 09:00      0.00    435.45    435.59     43476      3.94       177        75     18.43    266.40      3.00     67.90    125.20     13.87     13.16
01/03 10:00      0.00    435.43    435.58     43444      3.94       162        75     23.83    288.70      4.40     52.04    308.90     13.79     13.19
01/03 11:00      0.00    435.45    435.59     43476      3.93       239        75     27.07    323.30      7.10     46.17    463.20     13.64     13.33
01/03 12:00      0.00    435.46    435.58     43444      3.93       145        75     31.33    282.80      5.50     40.14    569.60     13.61     13.72
01/03 13:00      0.00    435.45    435.59     43476      3.93       147        75     35.80    299.10      5.40     33.94    611.10     13.71     13.85
01/03 14:00      0.00    435.42    435.62     43571      3.93       150        75     39.65    320.20      5.80     31.54    589.60     13.66     13.34
01/03 15:00      0.00    435.47    435.60     43508      3.93       152        75     41.94    341.80     10.40     32.95    501.70     13.51     13.30
01/03 16:00      0.00    435.43    435.60     43508      3.93        75        75     40.78      2.00     14.30     37.04    357.00     13.49     13.19
01/03 17:00      0.00    435.42    435.58     43444      3.93       158        75     39.67    357.70     13.00     37.26    169.20     13.59     13.23
01/03 18:00      0.00    435.60    435.59     43476      3.93       156        75     37.85    354.80     12.30     40.49      7.20     13.49     13.22
01/03 19:00      0.00    435.59    435.59     43476      3.93       154        75     36.00    353.80      6.90     45.01      0.00     13.49     13.18
01/03 20:00      0.00    435.50    435.60     43508      3.93       151        75     33.89    348.80      5.00     48.90      0.00     13.49     13.18
01/03 21:00      0.00    435.54    435.59     43476      3.93       136        75     31.30    355.10      4.60     60.75      0.00     13.49     13.18
01/03 22:00      0.00    435.57    435.60     43508      3.93         0        75     31.57    355.50      5.70     56.37      0.00     13.48     13.00
01/03 23:00      0.00    435.57    435.58     43444      3.94         2        75     29.26     22.70      2.30     66.37      0.00     13.48     13.17